KFFL/FFL METAR and TAF weather

Enter ICAO airport designator
Station Type Date Time Source
KFFL METAR 2022/06/29 01:35 UTC NOAA

KFFL 290135Z AUTO 21005KT 10SM CLR 24/13 A3010 RMK A01


Station Type Date Time Source
KFFL Decoded METAR 2022/06/29 01:35 UTC NOAA

Fair Field, IA, United States (KFFL) 41-03N 091-59W
Jun 28, 2022 - 09:35 PM EDT / 2022.06.29 0135 UTC
Wind: from the SSW (210 degrees) at 6 MPH (5 KT):0
Visibility: 10 mile(s):0
Sky conditions: clear
Temperature: 75 F (24 C)
Dew Point: 55 F (13 C)
Relative Humidity: 50%
Pressure (altimeter): 30.1 in. Hg (1019 hPa)
ob: KFFL 290135Z AUTO 21005KT 10SM CLR 24/13 A3010 RMK A01
cycle: 1

Station Type Date Time Source
KFFL TAF UTC NOAA

Error!

Example: see airport list